Time;durP1;ratioP1;P1;durP2;ratioP2;P2;SDS_P1;SDS_P2;PMS_P1;PMS_P2;Temp;Humidity;BMP_temperature;BMP_pressure;BME280_temperature;BME280_humidity;BME280_pressure;Samples;Min_cycle;Max_cycle;Signal;HPM_P1;HPM_P2
2023/03/31 00:02:12;;;;;;;14.20;2.53;;;;;;;14.86;64.44;100330.88;5077174;28;20043;-40
2023/03/31 00:04:45;;;;;;;13.02;2.58;;;;;;;14.88;64.47;100316.00;5076832;28;20402;-41
2023/03/31 00:07:12;;;;;;;12.45;2.35;;;;;;;14.76;64.57;100305.66;5081244;28;20051;-42
2023/03/31 00:09:40;;;;;;;12.48;2.40;;;;;;;14.61;65.40;100297.06;5093044;22;20052;-42
2023/03/31 00:12:06;;;;;;;12.57;2.58;;;;;;;14.83;64.71;100302.03;5061670;28;20371;-46
2023/03/31 00:14:31;;;;;;;12.05;2.67;;;;;;;14.86;64.49;100299.38;5062465;28;20123;-47
2023/03/31 00:16:57;;;;;;;15.57;3.17;;;;;;;14.87;64.64;100288.00;5057998;28;20032;-44
2023/03/31 00:19:22;;;;;;;8.48;2.20;;;;;;;15.08;64.10;100282.44;5061977;28;20071;-42
2023/03/31 00:21:48;;;;;;;12.65;2.22;;;;;;;15.05;64.01;100282.50;5058535;28;20025;-45
2023/03/31 00:24:15;;;;;;;8.32;2.08;;;;;;;15.11;64.22;100279.78;5061605;28;20085;-47
2023/03/31 00:26:40;;;;;;;10.63;2.22;;;;;;;15.13;64.15;100275.34;5058285;28;20490;-43
2023/03/31 00:29:08;;;;;;;9.70;2.40;;;;;;;14.99;64.36;100262.47;5061774;28;20123;-49
2023/03/31 00:31:34;;;;;;;11.88;2.10;;;;;;;15.03;64.58;100256.25;5064931;28;20032;-43
2023/03/31 00:34:00;;;;;;;7.38;2.03;;;;;;;15.10;64.40;100256.16;5063011;28;20028;-42
2023/03/31 00:36:28;;;;;;;9.05;2.13;;;;;;;15.24;64.09;100247.22;5085359;28;20078;-46
2023/03/31 00:39:04;;;;;;;13.57;2.45;;;;;;;15.15;64.39;100236.84;5079522;28;20035;-43
2023/03/31 00:41:30;;;;;;;11.45;2.22;;;;;;;15.22;64.43;100232.34;5083747;28;20036;-46
2023/03/31 00:44:07;;;;;;;12.30;2.20;;;;;;;15.25;64.27;100229.66;5081931;28;20043;-44
2023/03/31 00:46:43;;;;;;;11.95;1.98;;;;;;;15.28;64.27;100227.00;5086148;28;20035;-44
2023/03/31 00:49:19;;;;;;;7.95;2.20;;;;;;;15.23;64.61;100220.97;5071259;28;20114;-42
2023/03/31 00:51:48;;;;;;;11.70;2.28;;;;;;;14.70;66.73;100216.53;5085817;28;20312;-43
2023/03/31 00:54:14;;;;;;;12.65;2.42;;;;;;;14.79;66.16;100214.63;5090168;28;20039;-46
2023/03/31 00:56:44;;;;;;;10.05;2.00;;;;;;;15.15;65.32;100205.31;5084224;28;20046;-45
2023/03/31 00:59:11;;;;;;;8.15;2.17;;;;;;;15.21;65.26;100197.34;5088158;28;20028;-46
2023/03/31 01:01:38;;;;;;;7.65;2.22;;;;;;;15.15;65.89;100191.31;5088782;28;20112;-44
2023/03/31 01:04:06;;;;;;;9.32;2.10;;;;;;;15.23;65.80;100190.31;5085306;28;20028;-45
2023/03/31 01:06:32;;;;;;;10.70;2.40;;;;;;;15.32;65.72;100186.66;5084466;28;20032;-43
2023/03/31 01:08:58;;;;;;;10.02;2.40;;;;;;;15.49;65.10;100175.88;5080169;28;20113;-46
2023/03/31 01:11:27;;;;;;;9.75;2.20;;;;;;;15.22;66.18;100172.81;5085516;28;20048;-45
2023/03/31 01:13:55;;;;;;;7.78;2.00;;;;;;;15.06;66.96;100170.50;5081046;28;20123;-44
2023/03/31 01:16:21;;;;;;;10.85;2.33;;;;;;;15.17;67.03;100165.94;5084653;28;20024;-48
2023/03/31 01:18:48;;;;;;;9.43;2.30;;;;;;;15.06;67.20;100163.47;5080477;28;20073;-45
2023/03/31 01:21:13;;;;;;;12.18;2.42;;;;;;;15.22;67.24;100148.31;5084358;28;20543;-45
2023/03/31 01:23:56;;;;;;;10.18;2.65;;;;;;;15.03;68.07;100146.00;5080137;28;20060;-56
2023/03/31 01:26:37;;;;;;;8.25;2.70;;;;;;;14.62;69.19;100143.16;5083944;28;20596;-49
2023/03/31 01:29:18;;;;;;;8.35;2.50;;;;;;;15.06;68.36;100136.38;5080686;28;20035;-45
2023/03/31 01:32:05;;;;;;;8.93;2.33;;;;;;;15.03;69.02;100137.25;5079735;28;20032;-46
2023/03/31 01:35:01;;;;;;;11.52;2.40;;;;;;;14.72;70.13;100125.53;5080603;28;20494;-43
2023/03/31 01:37:44;;;;;;;11.60;2.60;;;;;;;14.54;70.64;100130.16;5073127;28;20036;-43
2023/03/31 01:40:24;;;;;;;11.48;2.70;;;;;;;14.67;71.26;100114.22;5080282;28;20042;-43
2023/03/31 01:43:14;;;;;;;8.93;2.58;;;;;;;14.59;71.77;100107.34;5080199;28;20042;-43
2023/03/31 01:46:08;;;;;;;12.23;2.90;;;;;;;14.49;72.05;100102.25;5075094;28;20255;-46
2023/03/31 01:48:55;;;;;;;9.13;2.47;;;;;;;14.58;71.98;100089.88;5079894;28;20035;-47
2023/03/31 01:51:42;;;;;;;10.85;2.55;;;;;;;14.35;72.35;100096.31;5078930;28;20039;-44
2023/03/31 01:54:19;;;;;;;8.23;2.67;;;;;;;14.36;72.55;100091.03;5088201;28;20069;-44
2023/03/31 01:56:54;;;;;;;9.15;2.45;;;;;;;14.47;72.10;100068.19;5081649;28;20085;-45
2023/03/31 01:59:28;;;;;;;8.30;2.22;;;;;;;14.52;72.41;100079.47;5085480;28;20067;-42
2023/03/31 02:02:02;;;;;;;9.95;2.63;;;;;;;14.78;71.31;100060.69;5088002;28;20032;-44
2023/03/31 02:04:33;;;;;;;9.35;2.30;;;;;;;14.57;72.43;100055.81;5091253;28;20486;-44
2023/03/31 02:07:06;;;;;;;11.05;3.03;;;;;;;14.75;71.49;100050.25;5079661;28;20078;-44
2023/03/31 02:09:36;;;;;;;10.60;2.60;;;;;;;14.87;71.21;100038.69;5077343;28;20094;-44
2023/03/31 02:12:06;;;;;;;12.35;2.90;;;;;;;14.45;72.49;100038.50;5080269;28;20489;-42
2023/03/31 02:14:34;;;;;;;11.25;2.83;;;;;;;14.76;71.96;100030.16;5083272;28;20032;-43
2023/03/31 02:17:02;;;;;;;11.77;2.85;;;;;;;14.69;72.06;100016.25;5075543;28;20028;-42
2023/03/31 02:19:35;;;;;;;11.23;2.75;;;;;;;14.76;71.74;100004.75;5083370;28;20032;-45
2023/03/31 02:22:03;;;;;;;9.38;2.83;;;;;;;14.67;71.95;100009.28;5067656;28;20517;-43
2023/03/31 02:24:30;;;;;;;10.05;2.80;;;;;;;14.74;71.73;99989.94;5083276;28;20039;-43
2023/03/31 02:27:16;;;;;;;9.30;2.47;;;;;;;14.72;71.59;99983.84;5080009;28;20031;-42
2023/03/31 02:29:41;;;;;;;10.20;2.50;;;;;;;14.77;71.47;99975.00;5079449;28;20093;-44
2023/03/31 02:32:15;;;;;;;13.85;2.72;;;;;;;14.63;71.95;99961.28;5052073;28;20024;-43
2023/03/31 02:34:41;;;;;;;11.52;2.40;;;;;;;14.52;72.51;99958.81;5078878;28;20040;-43
2023/03/31 02:37:07;;;;;;;8.57;2.30;;;;;;;14.41;72.57;99950.28;5083021;28;20028;-43
2023/03/31 02:39:35;;;;;;;10.93;2.35;;;;;;;14.69;71.73;99941.94;5082949;28;20024;-43
2023/03/31 02:42:06;;;;;;;9.73;2.60;;;;;;;14.58;72.02;99940.34;5079430;28;20032;-43
2023/03/31 02:44:33;;;;;;;9.60;2.50;;;;;;;14.49;72.46;99935.28;5061639;28;20411;-41
2023/03/31 02:46:59;;;;;;;10.77;2.50;;;;;;;14.54;71.96;99920.31;5079748;28;20040;-42
2023/03/31 02:49:24;;;;;;;7.22;2.38;;;;;;;14.56;71.78;99917.69;5083170;28;20531;-43
2023/03/31 02:52:11;;;;;;;9.15;2.63;;;;;;;14.67;71.54;99906.97;5083857;28;20370;-42
2023/03/31 02:54:59;;;;;;;10.10;2.92;;;;;;;14.66;71.44;99903.50;5074982;28;20036;-45
2023/03/31 02:57:39;;;;;;;9.90;2.80;;;;;;;14.65;71.61;99904.38;5074253;28;20043;-44
2023/03/31 03:00:25;;;;;;;8.13;2.47;;;;;;;14.38;71.63;99879.53;5083925;28;20143;-44
2023/03/31 03:03:24;;;;;;;9.82;2.75;;;;;;;14.69;71.14;99886.84;5085766;28;20043;-43
2023/03/31 03:05:58;;;;;;;8.20;2.40;;;;;;;14.33;72.07;99876.09;5083112;28;20032;-43
2023/03/31 03:08:29;;;;;;;9.15;2.58;;;;;;;14.41;71.69;99870.72;5082332;28;20051;-44
2023/03/31 03:11:20;;;;;;;8.32;2.08;;;;;;;14.51;71.49;99873.19;5078620;28;20085;-42
2023/03/31 03:13:51;;;;;;;7.63;2.00;;;;;;;14.61;70.85;99861.63;5078443;28;20104;-50
2023/03/31 03:16:41;;;;;;;6.70;2.03;;;;;;;14.38;71.80;99860.31;5082485;28;20028;-42
2023/03/31 03:19:07;;;;;;;10.00;2.13;;;;;;;14.09;72.54;99851.16;5078621;28;20478;-44
2023/03/31 03:21:33;;;;;;;6.53;1.70;;;;;;;14.42;71.48;99846.25;5083403;28;20039;-44
2023/03/31 03:23:59;;;;;;;5.97;1.50;;;;;;;14.37;71.15;99845.44;5079740;28;20455;-44
2023/03/31 03:26:26;;;;;;;6.90;1.27;;;;;;;14.41;70.81;99836.66;5082749;28;20055;-43
2023/03/31 03:28:53;;;;;;;5.40;1.25;;;;;;;14.43;70.76;99825.25;5078754;28;20043;-44
2023/03/31 03:31:19;;;;;;;6.15;1.30;;;;;;;13.88;71.66;99817.47;5083283;28;20534;-43
2023/03/31 03:33:45;;;;;;;4.22;1.10;;;;;;;14.36;70.90;99807.00;5079544;28;20032;-43
2023/03/31 03:36:11;;;;;;;5.28;1.05;;;;;;;14.22;71.09;99800.25;5082653;28;20043;-45
2023/03/31 03:38:36;;;;;;;4.15;1.10;;;;;;;14.27;70.84;99789.69;5078566;28;20032;-42
2023/03/31 03:41:02;;;;;;;3.00;1.00;;;;;;;14.09;71.61;99771.66;5077926;28;20043;-44
2023/03/31 03:43:27;;;;;;;3.60;1.00;;;;;;;14.20;71.32;99773.22;5082529;28;20020;-47
2023/03/31 03:45:53;;;;;;;3.97;0.90;;;;;;;14.23;71.08;99767.03;5079486;28;20086;-44
2023/03/31 03:48:18;;;;;;;3.80;1.00;;;;;;;14.02;70.85;99757.84;5082767;28;20170;-43
2023/03/31 03:50:45;;;;;;;2.83;0.90;;;;;;;14.00;71.54;99743.03;5078231;28;20032;-43
2023/03/31 03:53:11;;;;;;;4.68;1.00;;;;;;;13.70;72.99;99736.56;5082400;28;20040;-43
2023/03/31 03:55:37;;;;;;;4.72;1.30;;;;;;;13.61;73.55;99729.72;5078316;28;20020;-42
2023/03/31 03:58:02;;;;;;;6.10;1.55;;;;;;;13.58;73.85;99724.56;5082628;28;20490;-42
2023/03/31 04:00:27;;;;;;;6.53;1.50;;;;;;;13.70;73.40;99718.25;5081908;28;20044;-47
2023/03/31 04:02:53;;;;;;;7.13;1.58;;;;;;;13.90;72.52;99705.66;5078735;28;20042;-43
2023/03/31 04:05:18;;;;;;;5.00;1.70;;;;;;;14.13;72.01;99700.84;5084916;28;20078;-45
2023/03/31 04:07:43;;;;;;;5.15;1.80;;;;;;;14.15;72.06;99687.66;5082018;28;20040;-45
2023/03/31 04:10:09;;;;;;;6.05;1.98;;;;;;;13.95;72.45;99688.09;5085977;28;20036;-44
2023/03/31 04:12:34;;;;;;;7.25;2.40;;;;;;;13.93;72.82;99692.47;5086124;28;20032;-42
2023/03/31 04:15:00;;;;;;;5.65;2.40;;;;;;;13.84;73.13;99674.34;5082260;28;20036;-44
2023/03/31 04:17:36;;;;;;;7.72;2.80;;;;;;;14.25;72.40;99670.03;5087457;28;20435;-44
2023/03/31 04:20:10;;;;;;;6.93;2.80;;;;;;;14.14;72.55;99665.88;5084652;28;20028;-42
2023/03/31 04:22:39;;;;;;;8.43;3.00;;;;;;;14.33;71.87;99658.50;5083454;28;20038;-43
2023/03/31 04:25:15;;;;;;;9.15;3.08;;;;;;;14.05;72.59;99655.56;5084083;28;20485;-45
2023/03/31 04:27:49;;;;;;;7.25;3.10;;;;;;;14.15;73.02;99643.13;5085009;28;20032;-43
2023/03/31 04:30:21;;;;;;;9.18;3.10;;;;;;;13.97;73.56;99638.25;5089008;28;20028;-45
2023/03/31 04:32:49;;;;;;;7.22;2.90;;;;;;;13.55;75.21;99632.06;5084868;28;20051;-42
2023/03/31 04:35:16;;;;;;;7.68;2.90;;;;;;;14.13;73.63;99627.44;5088153;28;20036;-42
2023/03/31 04:37:42;;;;;;;8.25;2.90;;;;;;;14.31;72.50;99626.19;5083302;28;20115;-43
2023/03/31 04:40:08;;;;;;;6.82;2.60;;;;;;;13.96;73.79;99623.44;5088132;28;20028;-43
2023/03/31 04:42:34;;;;;;;9.90;2.75;;;;;;;14.13;73.50;99614.34;5087364;28;20470;-42
2023/03/31 04:45:00;;;;;;;8.18;2.60;;;;;;;14.27;72.98;99611.44;5084078;28;20031;-45
2023/03/31 04:47:25;;;;;;;9.32;2.70;;;;;;;14.31;72.86;99610.47;5082618;28;20034;-47
2023/03/31 04:49:51;;;;;;;8.50;2.25;;;;;;;14.20;72.75;99596.72;5083311;28;20099;-43
2023/03/31 04:52:16;;;;;;;7.07;2.45;;;;;;;14.03;73.52;99590.97;5084916;28;20036;-43
2023/03/31 04:54:41;;;;;;;7.90;2.40;;;;;;;14.29;72.87;99598.25;5081304;28;20039;-42
2023/03/31 04:57:06;;;;;;;6.25;2.50;;;;;;;14.03;73.61;99580.47;5085337;28;20024;-44
2023/03/31 04:59:32;;;;;;;8.85;2.30;;;;;;;14.02;73.77;99582.25;5086233;28;20605;-45
2023/03/31 05:01:57;;;;;;;6.53;2.30;;;;;;;14.25;72.87;99584.38;5081458;28;20063;-43
2023/03/31 05:04:22;;;;;;;5.78;2.10;;;;;;;14.13;72.69;99575.03;5085234;28;20086;-44
2023/03/31 05:06:48;;;;;;;6.57;2.05;;;;;;;14.30;72.55;99573.78;5081942;28;20106;-42
2023/03/31 05:09:13;;;;;;;6.35;1.60;;;;;;;14.22;72.64;99572.19;5086198;28;20067;-43
2023/03/31 05:11:38;;;;;;;6.63;1.80;;;;;;;14.40;71.90;99565.69;5082202;28;20039;-55
2023/03/31 05:14:04;;;;;;;5.95;1.77;;;;;;;14.27;71.93;99568.63;5088750;28;20030;-42
2023/03/31 05:16:29;;;;;;;6.13;1.73;;;;;;;14.16;72.67;99553.97;5087057;28;20032;-43
2023/03/31 05:18:55;;;;;;;5.80;1.80;;;;;;;14.19;72.75;99553.06;5084154;28;20232;-45
2023/03/31 05:21:20;;;;;;;5.82;1.60;;;;;;;14.21;72.31;99556.50;5089251;28;20093;-43
2023/03/31 05:23:47;;;;;;;6.47;1.88;;;;;;;14.28;72.16;99550.22;5084604;28;20470;-43
2023/03/31 05:26:13;;;;;;;6.30;1.60;;;;;;;14.00;73.12;99549.09;5089662;28;20028;-43
2023/03/31 05:28:39;;;;;;;4.63;1.55;;;;;;;13.85;73.41;99549.41;5084724;28;20124;-43
2023/03/31 05:31:06;;;;;;;4.07;1.38;;;;;;;13.99;72.88;99544.75;5087641;28;20059;-42
2023/03/31 05:33:32;;;;;;;4.57;1.60;;;;;;;14.14;72.49;99547.06;5084995;28;20111;-43
2023/03/31 05:35:59;;;;;;;5.70;1.67;;;;;;;14.12;72.27;99540.97;5079723;28;20185;-43
2023/03/31 05:38:27;;;;;;;4.03;1.40;;;;;;;14.12;72.35;99536.59;5083760;28;20490;-44
2023/03/31 05:40:54;;;;;;;3.85;1.30;;;;;;;14.19;72.20;99540.81;5080425;28;20043;-48
2023/03/31 05:43:19;;;;;;;4.18;1.40;;;;;;;14.00;72.75;99539.50;5090940;28;20044;-45
2023/03/31 05:45:44;;;;;;;3.50;1.40;;;;;;;14.11;72.40;99529.63;5086855;28;20039;-44
2023/03/31 05:48:10;;;;;;;3.90;1.40;;;;;;;14.28;71.49;99531.88;5083519;28;20047;-43
2023/03/31 05:50:35;;;;;;;3.45;1.10;;;;;;;14.16;71.82;99534.75;5086296;28;20107;-54
2023/03/31 05:53:00;;;;;;;2.22;1.10;;;;;;;13.88;72.74;99526.66;5079941;28;20028;-49
2023/03/31 05:55:26;;;;;;;3.40;1.20;;;;;;;14.03;71.81;99523.69;5089919;28;20052;-44
2023/03/31 05:57:51;;;;;;;2.97;1.10;;;;;;;14.06;71.52;99517.53;5081475;28;20031;-44
2023/03/31 06:00:16;;;;;;;3.40;1.17;;;;;;;14.05;72.02;99513.19;5082371;28;20032;-43
2023/03/31 06:02:42;;;;;;;3.10;1.02;;;;;;;14.23;71.29;99516.25;5079770;28;20138;-43
2023/03/31 06:05:07;;;;;;;4.05;1.10;;;;;;;14.22;71.10;99519.75;5083528;28;20028;-46
2023/03/31 06:07:33;;;;;;;3.70;1.13;;;;;;;14.18;71.11;99512.88;5065953;28;20032;-45
2023/03/31 06:09:58;;;;;;;2.75;0.90;;;;;;;14.25;71.21;99510.97;5089578;22;20040;-39
2023/03/31 06:12:23;;;;;;;2.53;1.00;;;;;;;13.91;72.17;99507.38;5070535;28;20028;-39
2023/03/31 06:14:49;;;;;;;3.35;1.15;;;;;;;14.03;71.53;99507.97;5081912;28;20486;-38
2023/03/31 06:17:14;;;;;;;3.33;0.90;;;;;;;14.15;71.26;99504.19;5084374;28;20062;-39
2023/03/31 06:19:39;;;;;;;2.65;1.00;;;;;;;14.23;71.19;99507.53;5080232;28;20078;-39
2023/03/31 06:22:04;;;;;;;1.92;0.93;;;;;;;14.31;70.92;99507.34;5083175;28;20060;-42
2023/03/31 06:24:30;;;;;;;3.80;0.90;;;;;;;14.14;71.57;99505.13;5082320;28;20115;-42
2023/03/31 06:26:55;;;;;;;4.13;1.00;;;;;;;14.08;71.85;99497.41;5078334;28;20063;-38
2023/03/31 06:29:21;;;;;;;3.60;1.00;;;;;;;14.09;71.74;99489.47;5082758;28;20403;-39
2023/03/31 06:31:46;;;;;;;3.92;1.20;;;;;;;14.26;71.61;99489.13;5078476;28;20032;-39
2023/03/31 06:34:11;;;;;;;3.30;1.10;;;;;;;14.16;72.06;99488.44;5083065;28;20116;-40
2023/03/31 06:36:37;;;;;;;2.83;1.05;;;;;;;14.25;71.88;99486.53;5078857;28;20043;-42
2023/03/31 06:39:02;;;;;;;3.47;1.20;;;;;;;14.29;72.17;99477.69;5081265;28;20032;-41
2023/03/31 06:41:27;;;;;;;6.18;1.40;;;;;;;14.33;72.13;99468.88;5083130;28;20028;-39
2023/03/31 06:43:53;;;;;;;3.72;1.33;;;;;;;14.01;72.65;99472.22;5079770;28;20042;-48
2023/03/31 06:46:18;;;;;;;5.28;1.50;;;;;;;14.33;72.46;99474.97;5086999;28;20105;-39
2023/03/31 06:48:43;;;;;;;4.90;1.40;;;;;;;14.51;71.74;99463.19;5080446;28;20103;-38
2023/03/31 06:51:09;;;;;;;3.83;1.40;;;;;;;14.36;71.85;99468.78;5061043;28;20055;-43
2023/03/31 06:53:36;;;;;;;4.95;1.50;;;;;;;14.62;71.44;99458.53;5073343;28;20042;-35
2023/03/31 06:56:02;;;;;;;4.40;1.48;;;;;;;14.42;71.54;99447.69;5057158;28;20032;-39
2023/03/31 06:58:28;;;;;;;4.45;1.45;;;;;;;14.43;71.90;99452.88;5080262;28;20066;-41
2023/03/31 07:00:53;;;;;;;5.90;1.65;;;;;;;14.51;71.98;99460.56;5077373;28;20486;-44
2023/03/31 07:03:21;;;;;;;5.10;1.70;;;;;;;14.58;71.67;99442.00;5081630;28;20062;-38
2023/03/31 07:05:53;;;;;;;3.55;1.48;;;;;;;14.66;71.33;99447.06;5076742;28;20104;-39
2023/03/31 07:08:20;;;;;;;5.22;2.00;;;;;;;14.46;71.73;99454.56;5080888;28;20469;-39
2023/03/31 07:10:47;;;;;;;5.38;1.90;;;;;;;14.45;71.71;99448.47;5077270;28;20028;-38
2023/03/31 07:13:16;;;;;;;5.70;1.88;;;;;;;14.60;71.62;99442.84;5080924;28;20440;-39
2023/03/31 07:15:42;;;;;;;5.82;2.10;;;;;;;14.46;71.49;99446.69;5076499;28;20024;-41
2023/03/31 07:18:08;;;;;;;5.78;2.30;;;;;;;14.57;71.76;99436.81;5081880;28;20040;-39
2023/03/31 07:20:34;;;;;;;6.35;2.28;;;;;;;14.89;71.24;99435.94;5082305;28;20064;-39
2023/03/31 07:23:03;;;;;;;6.60;2.50;;;;;;;14.38;72.40;99440.81;5078494;28;20063;-39
2023/03/31 07:25:28;;;;;;;6.03;2.40;;;;;;;15.19;70.48;99435.09;5083562;28;20028;-38
2023/03/31 07:27:54;;;;;;;5.50;2.70;;;;;;;14.93;70.56;99434.97;5078141;28;20317;-37
2023/03/31 07:30:20;;;;;;;6.25;2.63;;;;;;;14.99;70.04;99433.06;5079108;28;20070;-39
2023/03/31 07:32:48;;;;;;;7.30;3.20;;;;;;;14.34;71.39;99433.84;5076379;28;20042;-39
2023/03/31 07:35:13;;;;;;;7.93;3.03;;;;;;;14.99;70.32;99430.44;5080563;28;20169;-40
2023/03/31 07:37:42;;;;;;;7.90;2.85;;;;;;;14.36;71.46;99429.44;5076338;28;20188;-41
2023/03/31 07:40:11;;;;;;;7.72;2.80;;;;;;;14.72;71.14;99425.03;5079859;28;20102;-41
2023/03/31 07:42:37;;;;;;;9.35;3.20;;;;;;;15.16;70.30;99427.31;5077667;28;20036;-43
2023/03/31 07:45:05;;;;;;;9.60;3.25;;;;;;;15.11;70.02;99423.13;5078554;28;20374;-39
2023/03/31 07:47:31;;;;;;;8.80;3.03;;;;;;;14.99;70.24;99414.69;5081165;28;20462;-39
2023/03/31 07:49:56;;;;;;;10.07;3.40;;;;;;;14.95;70.31;99413.03;5076521;28;20533;-39
2023/03/31 07:52:22;;;;;;;7.88;2.65;;;;;;;15.50;69.52;99414.06;5081605;28;20123;-41
2023/03/31 07:54:48;;;;;;;7.60;2.90;;;;;;;15.44;68.79;99409.00;5075792;28;20401;-38
2023/03/31 07:57:15;;;;;;;8.48;3.22;;;;;;;15.57;68.83;99405.13;5064368;28;20040;-41
2023/03/31 07:59:40;;;;;;;9.15;2.80;;;;;;;15.52;68.63;99403.53;5077138;28;20036;-38
2023/03/31 08:02:06;;;;;;;8.30;2.75;;;;;;;15.50;68.00;99400.06;5062470;28;20028;-36
2023/03/31 08:04:31;;;;;;;9.50;2.90;;;;;;;15.83;67.63;99396.47;5080582;28;20036;-39
2023/03/31 08:06:57;;;;;;;12.63;2.90;;;;;;;16.07;67.02;99393.03;5081759;28;20042;-40
2023/03/31 08:09:22;;;;;;;9.73;2.92;;;;;;;15.89;67.51;99398.03;5067630;28;20447;-38
2023/03/31 08:11:48;;;;;;;8.77;2.90;;;;;;;15.93;67.45;99390.00;5081633;28;20032;-39
2023/03/31 08:14:13;;;;;;;6.85;2.20;;;;;;;16.21;67.31;99385.59;5081593;28;20051;-39
2023/03/31 08:16:39;;;;;;;9.50;2.47;;;;;;;16.43;67.02;99384.84;5077441;28;20040;-43
2023/03/31 08:19:05;;;;;;;10.02;2.30;;;;;;;16.51;66.22;99383.69;5081602;28;20261;-39
2023/03/31 08:21:30;;;;;;;9.75;2.50;;;;;;;16.74;65.87;99375.00;5080933;28;20043;-41
2023/03/31 08:23:56;;;;;;;10.55;2.42;;;;;;;16.83;65.19;99371.19;5079343;28;20047;-39
2023/03/31 08:26:23;;;;;;;7.85;2.45;;;;;;;16.22;65.23;99368.03;5083349;28;20119;-41
2023/03/31 08:28:49;;;;;;;13.20;3.33;;;;;;;16.11;65.73;99357.84;5060931;28;20036;-38
2023/03/31 08:31:17;;;;;;;8.77;2.75;;;;;;;16.05;65.87;99375.59;5081586;28;20035;-39
2023/03/31 08:33:44;;;;;;;9.32;2.70;;;;;;;15.82;66.68;99365.84;5078445;28;22334;-38
2023/03/31 08:36:10;;;;;;;8.52;2.92;;;;;;;15.90;67.69;99365.59;5083767;28;20175;-39
2023/03/31 08:38:40;;;;;;;13.32;3.33;;;;;;;15.68;67.88;99365.41;5083932;28;20044;-42
2023/03/31 08:41:21;;;;;;;10.93;3.17;;;;;;;15.53;68.49;99358.88;5061865;28;20053;-38
2023/03/31 08:43:48;;;;;;;11.20;3.58;;;;;;;15.47;68.99;99350.28;5077782;28;20055;-38
2023/03/31 08:46:17;;;;;;;16.67;3.55;;;;;;;15.48;68.62;99338.88;5080403;28;20071;-40
2023/03/31 08:48:53;;;;;;;10.85;3.50;;;;;;;15.35;68.75;99343.63;5076519;28;20028;-41
2023/03/31 08:51:24;;;;;;;12.75;3.92;;;;;;;15.02;69.25;99335.84;5081929;28;20111;-38
2023/03/31 08:53:58;;;;;;;14.95;3.80;;;;;;;15.42;68.67;99332.03;5078854;28;20039;-39
2023/03/31 08:56:26;;;;;;;12.27;3.80;;;;;;;15.87;67.45;99334.13;5083784;28;20050;-44
2023/03/31 08:58:52;;;;;;;14.50;3.25;;;;;;;15.77;67.85;99342.34;5080476;28;20323;-38
2023/03/31 09:01:45;;;;;;;15.77;3.65;;;;;;;16.01;67.35;99318.78;5082841;28;20035;-42
2023/03/31 09:04:35;;;;;;;13.60;2.85;;;;;;;15.93;67.58;99333.94;5079243;28;20469;-38
2023/03/31 09:07:01;;;;;;;10.95;2.58;;;;;;;16.30;67.22;99326.53;5078823;28;20032;-38
2023/03/31 09:09:32;;;;;;;11.65;2.78;;;;;;;16.12;67.60;99327.16;5083202;28;20431;-38
2023/03/31 09:12:01;;;;;;;13.70;2.70;;;;;;;15.88;66.35;99327.97;5079910;28;20096;-38
2023/03/31 09:14:36;;;;;;;11.00;2.88;;;;;;;16.13;66.28;99324.50;5083636;28;20032;-40
2023/03/31 09:17:11;;;;;;;11.95;2.50;;;;;;;16.02;65.36;99318.75;5080115;28;20101;-39
2023/03/31 09:19:52;;;;;;;13.02;2.60;;;;;;;16.00;65.50;99317.06;5082154;28;20032;-39
2023/03/31 09:22:24;;;;;;;11.13;2.55;;;;;;;16.11;64.53;99314.94;5089736;28;20047;-38
2023/03/31 09:25:12;;;;;;;12.73;2.60;;;;;;;15.38;66.03;99320.75;5081189;28;20632;-41
2023/03/31 09:27:41;;;;;;;11.73;2.53;;;;;;;15.11;67.97;99311.09;5085084;28;20028;-38
2023/03/31 09:30:13;;;;;;;14.85;3.15;;;;;;;15.75;67.26;99312.59;5067791;28;20048;-34
2023/03/31 09:32:39;;;;;;;10.32;2.28;;;;;;;15.55;67.41;99316.81;5072261;28;20044;-39
2023/03/31 09:35:24;;;;;;;13.13;2.53;;;;;;;15.69;66.67;99306.69;5081883;28;20032;-40
2023/03/31 09:37:50;;;;;;;11.23;2.50;;;;;;;15.95;66.47;99308.47;5079997;28;20031;-39
2023/03/31 09:40:21;;;;;;;11.40;2.80;;;;;;;15.85;67.10;99293.94;5085573;28;20036;-38
2023/03/31 09:42:54;;;;;;;15.98;3.00;;;;;;;15.74;66.78;99297.75;5081013;28;20044;-35
2023/03/31 09:45:20;;;;;;;13.13;3.28;;;;;;;15.61;67.65;99296.47;5071003;28;20213;-38
2023/03/31 09:47:56;;;;;;;16.67;3.03;;;;;;;15.11;69.02;99286.63;5075408;28;20119;-34
2023/03/31 09:50:23;;;;;;;15.95;3.00;;;;;;;15.15;69.35;99281.22;5078436;28;20248;-39
2023/03/31 09:52:59;;;;;;;13.35;2.78;;;;;;;15.25;69.58;99276.53;5079687;28;20028;-37
2023/03/31 09:55:44;;;;;;;11.15;2.90;;;;;;;15.15;68.80;99280.38;5080740;28;20040;-38
2023/03/31 09:58:15;;;;;;;13.88;3.00;;;;;;;15.09;69.79;99275.31;5076905;28;20039;-39
2023/03/31 10:00:43;;;;;;;12.77;2.88;;;;;;;15.12;69.61;99272.59;5077707;28;20054;-34
2023/03/31 10:03:12;;;;;;;13.20;2.83;;;;;;;15.42;69.39;99267.25;5080164;28;20040;-36
2023/03/31 10:05:47;;;;;;;12.85;2.70;;;;;;;15.29;69.76;99270.31;5083769;28;20032;-35
2023/03/31 10:08:16;;;;;;;15.13;2.95;;;;;;;15.01;70.39;99273.75;5083447;28;20093;-39
2023/03/31 10:10:47;;;;;;;12.43;2.72;;;;;;;15.03;70.61;99271.97;5076411;28;20097;-38
2023/03/31 10:13:16;;;;;;;12.57;2.75;;;;;;;15.07;70.36;99272.72;5081763;28;20028;-43
2023/03/31 10:15:41;;;;;;;13.85;2.42;;;;;;;15.03;70.63;99274.59;5077290;28;20036;-38
2023/03/31 10:18:13;;;;;;;11.45;2.25;;;;;;;14.94;70.17;99276.63;5082214;28;20032;-39
2023/03/31 10:20:47;;;;;;;10.52;2.30;;;;;;;14.60;70.90;99259.25;5077556;28;20059;-40
2023/03/31 10:23:23;;;;;;;9.70;2.35;;;;;;;14.15;71.83;99263.94;5082451;28;20034;-45
2023/03/31 10:25:50;;;;;;;11.40;2.25;;;;;;;14.57;71.28;99261.09;5078342;28;20409;-40
2023/03/31 10:28:18;;;;;;;10.45;2.50;;;;;;;15.06;69.75;99264.91;5081488;28;20028;-42
2023/03/31 10:30:49;;;;;;;11.98;2.58;;;;;;;14.57;71.38;99261.09;5078120;28;20036;-41
2023/03/31 10:33:19;;;;;;;12.95;2.60;;;;;;;14.43;71.99;99266.72;5082537;28;20045;-43
2023/03/31 10:35:47;;;;;;;14.57;2.70;;;;;;;14.10;72.71;99273.69;5078208;28;20051;-38
2023/03/31 10:38:18;;;;;;;10.23;2.20;;;;;;;14.39;72.97;99269.50;5081857;28;20111;-41
2023/03/31 10:40:53;;;;;;;12.98;2.30;;;;;;;14.46;72.33;99274.50;5078277;28;20099;-39
2023/03/31 10:43:28;;;;;;;9.48;2.13;;;;;;;14.53;70.99;99276.03;5081752;28;20031;-39
2023/03/31 10:46:01;;;;;;;8.02;1.90;;;;;;;14.56;71.19;99264.63;5067386;28;20036;-43
2023/03/31 10:48:37;;;;;;;8.55;1.80;;;;;;;14.72;70.89;99268.53;5081816;28;20036;-41
2023/03/31 10:51:18;;;;;;;7.80;1.90;;;;;;;14.85;70.18;99271.66;5077578;28;20032;-40
2023/03/31 10:53:43;;;;;;;10.32;2.20;;;;;;;14.97;69.61;99258.16;5077238;28;21098;-40
2023/03/31 10:56:36;;;;;;;7.15;1.73;;;;;;;15.07;70.52;99253.47;5081183;28;20040;-39
2023/03/31 10:59:22;;;;;;;8.40;2.00;;;;;;;15.58;69.76;99248.41;5077644;28;20109;-39
2023/03/31 11:02:26;;;;;;;6.80;1.70;;;;;;;15.35;69.41;99249.09;5076633;28;20033;-38
2023/03/31 11:05:14;;;;;;;10.90;2.08;;;;;;;15.54;68.52;99242.41;5077427;28;20036;-39
2023/03/31 11:07:48;;;;;;;9.27;2.03;;;;;;;15.32;69.20;99244.81;5070741;28;20032;-42
2023/03/31 11:10:16;;;;;;;;;;;;;;;15.83;67.94;99238.78;5079057;28;20048;-39
2023/03/31 11:12:55;;;;;;;8.48;1.60;;;;;;;15.86;67.50;99243.09;5077475;28;20370;-41
2023/03/31 11:15:29;;;;;;;11.88;2.15;;;;;;;15.81;66.67;99240.59;5080360;28;20020;-39
2023/03/31 11:18:32;;;;;;;9.05;2.00;;;;;;;15.10;68.53;99225.38;5073782;28;20108;-39
2023/03/31 11:21:29;;;;;;;11.57;2.03;;;;;;;14.70;70.84;99233.59;5078204;28;20051;-38
2023/03/31 11:24:16;;;;;;;9.45;1.80;;;;;;;15.08;68.96;99221.94;5077177;28;20064;-38
2023/03/31 11:26:56;;;;;;;8.00;2.00;;;;;;;15.07;69.55;99229.84;5076511;28;20036;-39
2023/03/31 11:29:47;;;;;;;7.97;1.85;;;;;;;15.52;69.19;99222.28;5081547;28;20053;-39
2023/03/31 11:32:30;;;;;;;8.02;1.90;;;;;;;15.50;69.19;99224.97;5075725;28;20494;-38
2023/03/31 11:35:27;;;;;;;7.50;1.90;;;;;;;15.19;69.59;99225.09;5078327;28;25129;-43
2023/03/31 11:38:14;;;;;;;8.73;1.80;;;;;;;15.27;69.11;99222.22;5079068;28;20032;-40
2023/03/31 11:40:56;;;;;;;6.60;1.40;;;;;;;14.92;69.24;99225.97;5078202;28;20093;-38
2023/03/31 11:43:35;;;;;;;6.82;1.67;;;;;;;15.20;69.49;99213.69;5082421;28;20036;-40
2023/03/31 11:46:11;;;;;;;5.95;1.17;;;;;;;15.46;68.87;99217.25;5059961;28;20040;-40